KMKL/MKL METAR and TAF weather

Enter ICAO airport designator
Station Type Date Time Source
KMKL METAR 2022/11/30 10:53 UTC NOAA

KMKL 301053Z AUTO 33015G25KT 10SM OVC023 04/00 A3012 RMK AO2 PK WND 32036/1025 SLP200 T00440000


Station Type Date Time Source
KMKL Decoded METAR 2022/11/30 10:53 UTC NOAA

JACKSON MCKELLAR-SIPES RGNL, TN, United States (KMKL) 35-36N 088-55W 128M
Nov 30, 2022 - 05:53 AM EST / 2022.11.30 1053 UTC
Wind: from the NNW (330 degrees) at 17 MPH (15 KT) gusting to 29 MPH (25 KT):0
Visibility: 10 mile(s):0
Sky conditions: overcast
Temperature: 39.9 F (4.4 C)
Dew Point: 32.0 F (0.0 C)
Relative Humidity: 73%
Pressure (altimeter): 30.12 in. Hg (1019 hPa)
ob: KMKL 301053Z AUTO 33015G25KT 10SM OVC023 04/00 A3012 RMK AO2 PK WND 32036/1025 SLP200 T00440000
cycle: 11

Station Type Date Time Source
KMKL TAF 2022/11/30 09:06 UTC NOAA

TAF
AMD KMKL 300903Z 3009/0106 34018G27KT P6SM BKN025 OVC050
FM301200 32015G22KT P6SM SCT015
FM301500 35016G22KT P6SM SKC
FM302300 35004KT P6SM SKC

Example: see airport list